Black Star — 9HA2911 — position and weather

sailwx.info

Track history (hours):
 
Tides and Currents Weather Stations Pressure Air Temp Water Temp Dewpoint Dewpoint Depression Visibility Wind Speed Wind Dir Waves Ship Positions

Black Star

Last reported at 2018-Apr-19 05:09 UTC. Time now 2018-Apr-26 16:51 UTC.
Position N 32°43' W 009°29'.

Length 129 m; draft 5.8 m.

Type: Ship (hazmat cat B). MMSI: 256714000.

Date/timePositionNaut miles runAvg speedWind from/ knotsBaromVisibWave heightAir tempDewpointWater temp
2018-Apr-19 05:09N 32°43' W 009°29'212.7
2018-Apr-19 05:00N 32°45' W 009°28'612.6
2018-Apr-19 04:30N 32°50' W 009°23'912.7
2018-Apr-19 03:49N 32°56' W 009°16'512.8
2018-Apr-19 03:27N 32°60' W 009°13'612.8
2018-Apr-19 03:00N 33°04' W 009°09'612.7
2018-Apr-19 02:30N 33°09' W 009°04'612.5
2018-Apr-19 01:59N 33°14' W 008°59'612.4
2018-Apr-19 01:30N 33°19' W 008°54'612.4
2018-Apr-19 01:00N 33°23' W 008°49'2012.5
2018-Apr-18 23:25N 33°35' W 008°30'1512.5
2018-Apr-18 22:14N 33°39' W 008°13'312.4
2018-Apr-18 21:58N 33°39' W 008°09'1312.6
2018-Apr-18 20:56N 33°41' W 007°53'  
2018-Apr-13 08:29N 35°58' W 005°35'511.3
2018-Apr-13 08:00N 35°59' W 005°29'510.6
2018-Apr-13 07:30N 36°01' W 005°23'510.0
2018-Apr-13 06:59N 36°02' W 005°16'5 9.9
2018-Apr-13 06:30N 36°03' W 005°11'21811.5
2018-Apr-12 11:37N 37°01' W 000°49'212.1
2018-Apr-12 11:25N 37°03' W 000°47'512.2
2018-Apr-12 11:00N 37°06' W 000°42'1912.0
2018-Apr-12 09:24N 37°19' W 000°25'410.8
2018-Apr-12 09:00N 37°22' W 000°20'811.0
2018-Apr-12 08:16N 37°28' W 000°14'311.3
2018-Apr-12 08:00N 37°30' W 000°12'911.6
2018-Apr-12 07:14N 37°38' W 000°05'22510.0
2018-Apr-11 08:37N 40°59' E 002°06'212.5
2018-Apr-11 08:28N 41°01' E 002°07'612.8
2018-Apr-11 07:59N 41°06' E 002°10'611.9
2018-Apr-11 07:30N 41°12' E 002°12'611.5
2018-Apr-11 07:00N 41°18' E 002°11'3 6.3
2018-Apr-11 06:30N 41°20' E 002°09'1 1.0
2018-Apr-11 06:00N 41°20' E 002°09'0 0.0
2018-Apr-11 05:30N 41°20' E 002°09'0 0.0
2018-Apr-11 05:00N 41°20' E 002°09'0 0.0
2018-Apr-11 04:30N 41°20' E 002°09'0 0.0
2018-Apr-11 03:56N 41°20' E 002°09'0 0.0
2018-Apr-11 03:20N 41°20' E 002°09'0 0.0
2018-Apr-11 01:38N 41°20' E 002°09'0 0.0
2018-Apr-10 22:32N 41°20' E 002°09'0 0.0
2018-Apr-10 22:26N 41°20' E 002°09'0 0.0
2018-Apr-10 19:56N 41°20' E 002°09'0 0.0
2018-Apr-10 19:14N 41°20' E 002°09'0 0.0
2018-Apr-10 18:14N 41°20' E 002°09'0 0.0
2018-Apr-10 17:50N 41°20' E 002°09'0 0.0
2018-Apr-10 17:26N 41°20' E 002°09'0 0.0
2018-Apr-10 16:50N 41°20' E 002°09'0 0.0
2018-Apr-10 15:44N 41°20' E 002°09'0 0.0
2018-Apr-10 15:26N 41°20' E 002°09'0 0.0
2018-Apr-10 14:56N 41°20' E 002°09'0 0.0
2018-Apr-10 14:26N 41°20' E 002°09'0 0.0
2018-Apr-10 13:38N 41°20' E 002°09'0 0.0
2018-Apr-10 13:26N 41°20' E 002°09'0 0.0
2018-Apr-10 12:56N 41°20' E 002°09'0 0.0
2018-Apr-10 12:26N 41°20' E 002°09'0 0.0
2018-Apr-10 11:56N 41°20' E 002°09'0 1.1
2018-Apr-10 11:30N 41°20' E 002°09'3 5.3
2018-Apr-10 11:00N 41°18' E 002°10'3 5.2
2018-Apr-10 10:30N 41°15' E 002°11'0 0.2
2018-Apr-10 10:00N 41°15' E 002°11'1 1.3
2018-Apr-10 09:30N 41°15' E 002°10'0 0.1
2018-Apr-10 09:00N 41°15' E 002°10'0 0.1
2018-Apr-10 08:30N 41°15' E 002°10'0 0.3
2018-Apr-10 08:00N 41°15' E 002°10'5 9.6
2018-Apr-10 07:30N 41°12' E 002°05'612.3
2018-Apr-10 07:00N 41°09' E 001°58'612.4
2018-Apr-10 06:30N 41°06' E 001°51'612.3
2018-Apr-10 06:00N 41°05' E 001°43'612.8
2018-Apr-10 05:30N 41°03' E 001°35'  
Track history (hours):
 
Tides and Currents Weather Stations Pressure Air Temp Water Temp Dewpoint Dewpoint Depression Visibility Wind Speed Wind Dir Waves Ship Positions

Black Star

Last reported at 2018-Apr-19 05:09 UTC. Time now 2018-Apr-26 16:51 UTC.
Position N 32°43' W 009°29'.

Length 129 m; draft 5.8 m.

Type: Ship (hazmat cat B). MMSI: 256714000.

Date/timePositionNaut miles runAvg speedWind from/ knotsBaromVisibWave heightAir tempDewpointWater temp
2018-Apr-19 05:09N 32°43' W 009°29'212.7
2018-Apr-19 05:00N 32°45' W 009°28'612.6
2018-Apr-19 04:30N 32°50' W 009°23'912.7
2018-Apr-19 03:49N 32°56' W 009°16'512.8
2018-Apr-19 03:27N 32°60' W 009°13'612.8
2018-Apr-19 03:00N 33°04' W 009°09'612.7
2018-Apr-19 02:30N 33°09' W 009°04'612.5
2018-Apr-19 01:59N 33°14' W 008°59'612.4
2018-Apr-19 01:30N 33°19' W 008°54'612.4
2018-Apr-19 01:00N 33°23' W 008°49'2012.5
2018-Apr-18 23:25N 33°35' W 008°30'1512.5
2018-Apr-18 22:14N 33°39' W 008°13'312.4
2018-Apr-18 21:58N 33°39' W 008°09'1312.6
2018-Apr-18 20:56N 33°41' W 007°53'  
2018-Apr-13 08:29N 35°58' W 005°35'511.3
2018-Apr-13 08:00N 35°59' W 005°29'510.6
2018-Apr-13 07:30N 36°01' W 005°23'510.0
2018-Apr-13 06:59N 36°02' W 005°16'5 9.9
2018-Apr-13 06:30N 36°03' W 005°11'21811.5
2018-Apr-12 11:37N 37°01' W 000°49'212.1
2018-Apr-12 11:25N 37°03' W 000°47'512.2
2018-Apr-12 11:00N 37°06' W 000°42'1912.0
2018-Apr-12 09:24N 37°19' W 000°25'410.8
2018-Apr-12 09:00N 37°22' W 000°20'811.0
2018-Apr-12 08:16N 37°28' W 000°14'311.3
2018-Apr-12 08:00N 37°30' W 000°12'911.6
2018-Apr-12 07:14N 37°38' W 000°05'22510.0
2018-Apr-11 08:37N 40°59' E 002°06'212.5
2018-Apr-11 08:28N 41°01' E 002°07'612.8
2018-Apr-11 07:59N 41°06' E 002°10'611.9
2018-Apr-11 07:30N 41°12' E 002°12'611.5
2018-Apr-11 07:00N 41°18' E 002°11'3 6.3
2018-Apr-11 06:30N 41°20' E 002°09'1 1.0
2018-Apr-11 06:00N 41°20' E 002°09'0 0.0
2018-Apr-11 05:30N 41°20' E 002°09'0 0.0
2018-Apr-11 05:00N 41°20' E 002°09'0 0.0
2018-Apr-11 04:30N 41°20' E 002°09'0 0.0
2018-Apr-11 03:56N 41°20' E 002°09'0 0.0
2018-Apr-11 03:20N 41°20' E 002°09'0 0.0
2018-Apr-11 01:38N 41°20' E 002°09'0 0.0
2018-Apr-10 22:32N 41°20' E 002°09'0 0.0
2018-Apr-10 22:26N 41°20' E 002°09'0 0.0
2018-Apr-10 19:56N 41°20' E 002°09'0 0.0
2018-Apr-10 19:14N 41°20' E 002°09'0 0.0
2018-Apr-10 18:14N 41°20' E 002°09'0 0.0
2018-Apr-10 17:50N 41°20' E 002°09'0 0.0
2018-Apr-10 17:26N 41°20' E 002°09'0 0.0
2018-Apr-10 16:50N 41°20' E 002°09'0 0.0
2018-Apr-10 15:44N 41°20' E 002°09'0 0.0
2018-Apr-10 15:26N 41°20' E 002°09'0 0.0
2018-Apr-10 14:56N 41°20' E 002°09'0 0.0
2018-Apr-10 14:26N 41°20' E 002°09'0 0.0
2018-Apr-10 13:38N 41°20' E 002°09'0 0.0
2018-Apr-10 13:26N 41°20' E 002°09'0 0.0
2018-Apr-10 12:56N 41°20' E 002°09'0 0.0
2018-Apr-10 12:26N 41°20' E 002°09'0 0.0
2018-Apr-10 11:56N 41°20' E 002°09'0 1.1
2018-Apr-10 11:30N 41°20' E 002°09'3 5.3
2018-Apr-10 11:00N 41°18' E 002°10'3 5.2
2018-Apr-10 10:30N 41°15' E 002°11'0 0.2
2018-Apr-10 10:00N 41°15' E 002°11'1 1.3
2018-Apr-10 09:30N 41°15' E 002°10'0 0.1
2018-Apr-10 09:00N 41°15' E 002°10'0 0.1
2018-Apr-10 08:30N 41°15' E 002°10'0 0.3
2018-Apr-10 08:00N 41°15' E 002°10'5 9.6
2018-Apr-10 07:30N 41°12' E 002°05'612.3
2018-Apr-10 07:00N 41°09' E 001°58'612.4
2018-Apr-10 06:30N 41°06' E 001°51'612.3
2018-Apr-10 06:00N 41°05' E 001°43'612.8
2018-Apr-10 05:30N 41°03' E 001°35'  

Dump ship's entire track history